Time;durP1;ratioP1;P1;durP2;ratioP2;P2;SDS_P1;SDS_P2;PMS_P1;PMS_P2;Temp;Humidity;BMP_temperature;BMP_pressure;BME280_temperature;BME280_humidity;BME280_pressure;Samples;Min_cycle;Max_cycle;Signal;HPM_P1;HPM_P2
2022/05/10 00:00:59;;;;;;;3.67;1.48;;;;;;;13.66;59.99;94964.88;5091755;28;20204;-63
2022/05/10 00:03:35;;;;;;;3.33;1.63;;;;;;;13.75;59.26;94967.41;5092181;28;20192;-61
2022/05/10 00:06:01;;;;;;;2.40;1.23;;;;;;;13.75;58.50;94966.59;5092358;28;20172;-64
2022/05/10 00:08:26;;;;;;;1.50;1.30;;;;;;;13.75;57.95;94971.72;5092173;28;20247;-64
2022/05/10 00:10:52;;;;;;;2.15;1.23;;;;;;;13.51;58.76;94964.56;5092247;28;20200;-60
2022/05/10 00:13:18;;;;;;;3.55;1.23;;;;;;;13.27;60.00;94947.13;5092080;28;20210;-63
2022/05/10 00:15:44;;;;;;;2.08;1.42;;;;;;;13.07;60.15;94939.69;5073888;28;20204;-62
2022/05/10 00:18:14;;;;;;;3.03;1.40;;;;;;;12.93;61.13;94935.75;5073995;28;20215;-62
2022/05/10 00:20:41;;;;;;;2.03;1.13;;;;;;;12.93;61.03;94933.22;5091855;28;20172;-61
2022/05/10 00:23:07;;;;;;;3.20;1.93;;;;;;;12.96;61.37;94938.06;5092298;28;20231;-60
2022/05/10 00:25:32;;;;;;;2.20;1.20;;;;;;;13.01;61.54;94940.22;5091936;28;20221;-60
2022/05/10 00:27:58;;;;;;;3.60;1.20;;;;;;;13.10;60.72;94937.66;5092355;28;20579;-61
2022/05/10 00:30:24;;;;;;;2.77;1.20;;;;;;;13.02;61.12;94940.06;5091906;28;20664;-62
2022/05/10 00:32:50;;;;;;;3.87;1.30;;;;;;;12.88;62.86;94924.38;5092387;28;20200;-60
2022/05/10 00:35:19;;;;;;;2.53;1.20;;;;;;;13.01;62.59;94932.56;5092028;28;20223;-61
2022/05/10 00:37:47;;;;;;;2.70;1.30;;;;;;;13.24;62.27;94938.97;5091875;28;20716;-61
2022/05/10 00:40:15;;;;;;;2.45;1.33;;;;;;;13.32;61.28;94951.84;5099231;22;20228;-63
2022/05/10 00:43:16;;;;;;;2.28;1.45;;;;;;;13.28;61.13;94945.41;5091794;28;20191;-62
2022/05/10 00:46:15;;;;;;;1.77;1.40;;;;;;;13.37;61.30;94949.69;5092217;28;20175;-61
2022/05/10 00:48:49;;;;;;;2.20;1.40;;;;;;;13.26;62.66;94926.84;5092155;28;20606;-60
2022/05/10 00:51:44;;;;;;;3.15;1.40;;;;;;;13.22;63.42;94913.56;5092359;28;20522;-61
2022/05/10 00:54:50;;;;;;;2.45;1.48;;;;;;;13.27;62.93;94924.16;5068123;28;20234;-60
2022/05/10 00:57:42;;;;;;;2.03;1.40;;;;;;;13.51;60.27;94958.63;5091584;28;20192;-61
2022/05/10 01:00:10;;;;;;;2.30;1.35;;;;;;;13.39;60.93;94958.00;5092338;28;20657;-62
2022/05/10 01:03:05;;;;;;;2.73;1.50;;;;;;;13.36;61.18;94948.88;5091624;28;20593;-61
2022/05/10 01:05:43;;;;;;;2.97;1.30;;;;;;;13.36;62.14;94940.41;5091774;28;20176;-61
2022/05/10 01:08:23;;;;;;;3.33;1.42;;;;;;;13.30;61.57;94949.44;5091571;28;20289;-61
2022/05/10 01:11:11;;;;;;;4.88;1.45;;;;;;;13.18;61.20;94949.72;5091750;28;20176;-62
2022/05/10 01:13:49;;;;;;;2.03;1.20;;;;;;;12.99;61.57;94939.53;5102494;22;20196;-61
2022/05/10 01:16:24;;;;;;;2.53;1.63;;;;;;;12.72;62.32;94927.47;5095107;28;20204;-65
2022/05/10 01:18:52;;;;;;;3.80;1.50;;;;;;;12.70;62.92;94920.91;5095488;28;20190;-63
2022/05/10 01:21:31;;;;;;;1.50;1.40;;;;;;;12.77;63.08;94920.22;5095092;28;20549;-61
2022/05/10 01:24:17;;;;;;;1.90;1.58;;;;;;;12.80;63.20;94919.16;5095449;28;20591;-61
2022/05/10 01:26:53;;;;;;;6.07;1.93;;;;;;;12.87;62.98;94925.28;5063418;28;20212;-61
2022/05/10 01:29:25;;;;;;;2.58;1.50;;;;;;;12.72;63.77;94907.06;5095614;28;20274;-61
2022/05/10 01:33:29;;;;;;;2.60;1.40;;;;;;;12.56;64.27;94911.94;5094997;28;20192;-61
2022/05/10 01:34:42;;;;;;;2.30;1.57;;;;;;;12.55;64.87;94911.13;5095251;28;20274;-62
2022/05/10 01:37:14;;;;;;;3.43;1.70;;;;;;;12.62;64.90;94909.63;5094991;28;20215;-61
2022/05/10 01:40:08;;;;;;;6.10;1.80;;;;;;;12.67;65.10;94909.22;5095384;28;20184;-63
2022/05/10 01:42:59;;;;;;;1.87;1.17;;;;;;;12.65;65.01;94911.09;5094839;28;20790;-61
2022/05/10 01:45:38;;;;;;;3.37;1.60;;;;;;;12.68;65.75;94908.28;5094836;28;20210;-61
2022/05/10 01:48:05;;;;;;;3.73;1.70;;;;;;;12.54;65.71;94899.28;5094657;28;20214;-62
2022/05/10 01:50:54;;;;;;;1.60;1.30;;;;;;;12.50;66.52;94897.94;5094802;28;20203;-63
2022/05/10 01:53:40;;;;;;;2.80;1.70;;;;;;;12.64;65.92;94910.28;5076818;28;20201;-61
2022/05/10 01:56:28;;;;;;;4.10;2.03;;;;;;;12.63;65.82;94907.88;5094358;28;20298;-62
2022/05/10 01:58:54;;;;;;;3.13;1.43;;;;;;;12.64;65.66;94914.59;5095217;28;20184;-61
2022/05/10 02:01:39;;;;;;;4.93;1.47;;;;;;;12.47;65.54;94907.63;5094345;28;20557;-61
2022/05/10 02:04:22;;;;;;;2.20;1.50;;;;;;;12.37;66.52;94899.16;5094992;28;20663;-62
2022/05/10 02:07:13;;;;;;;2.30;1.00;;;;;;;12.20;66.45;94908.28;5076227;28;20291;-59
2022/05/10 02:10:06;;;;;;;2.57;1.67;;;;;;;12.04;67.21;94894.47;5094908;28;20180;-62
2022/05/10 02:12:52;;;;;;;3.13;1.30;;;;;;;11.74;67.86;94893.63;5094427;28;20212;-64
2022/05/10 02:15:24;;;;;;;2.17;1.10;;;;;;;11.61;68.48;94882.84;5094616;28;20588;-61
2022/05/10 02:18:07;;;;;;;3.57;1.07;;;;;;;11.68;69.20;94891.59;5094179;28;20200;-62
2022/05/10 02:20:46;;;;;;;2.53;1.50;;;;;;;11.74;69.04;94898.72;5093970;28;20694;-61
2022/05/10 02:23:40;;;;;;;4.07;1.83;;;;;;;11.73;69.51;94892.03;5093345;28;20210;-61
2022/05/10 02:26:12;;;;;;;1.30;1.10;;;;;;;11.88;68.68;94914.56;5094150;28;20643;-60
2022/05/10 02:28:56;;;;;;;1.50;1.40;;;;;;;12.03;68.89;94911.50;5094094;28;20540;-60
2022/05/10 02:33:06;;;;;;;2.27;1.50;;;;;;;12.10;67.82;94925.31;5093692;28;20169;-63
2022/05/10 02:34:19;;;;;;;1.80;1.40;;;;;;;12.11;66.52;94931.22;5094017;28;20216;-63
2022/05/10 02:36:45;;;;;;;1.97;1.20;;;;;;;12.03;66.90;94925.97;5075516;28;20681;-65
2022/05/10 02:39:10;;;;;;;2.17;1.10;;;;;;;12.09;67.05;94925.44;5075713;28;20188;-61
2022/05/10 02:41:36;;;;;;;2.10;1.50;;;;;;;12.14;67.29;94919.00;5058797;28;20256;-61
2022/05/10 02:44:01;;;;;;;2.23;1.30;;;;;;;12.20;68.04;94910.06;5075403;28;20176;-61
2022/05/10 02:46:28;;;;;;;3.40;1.53;;;;;;;12.20;68.77;94904.97;5093367;28;20180;-60
2022/05/10 02:48:54;;;;;;;3.13;1.80;;;;;;;12.15;67.62;94920.63;5102844;22;20238;-61
2022/05/10 02:51:20;;;;;;;4.47;1.60;;;;;;;12.16;68.48;94911.25;5093436;28;20172;-63
2022/05/10 02:53:46;;;;;;;5.47;1.80;;;;;;;12.26;68.59;94907.75;5093896;28;20188;-59
2022/05/10 02:56:15;;;;;;;5.07;2.20;;;;;;;12.28;68.18;94921.16;5074903;28;20212;-61
2022/05/10 02:59:04;;;;;;;5.30;2.13;;;;;;;12.19;67.96;94929.63;5093805;28;20207;-64
2022/05/10 03:01:37;;;;;;;3.80;1.60;;;;;;;12.22;68.16;94918.38;5093587;28;20169;-64
2022/05/10 03:04:05;;;;;;;6.23;2.13;;;;;;;12.29;68.66;94919.44;5076187;28;20559;-60
2022/05/10 03:06:31;;;;;;;4.97;2.40;;;;;;;12.31;69.02;94912.47;5092953;28;20717;-61
2022/05/10 03:08:58;;;;;;;5.23;2.07;;;;;;;12.35;69.66;94901.06;5093689;28;20626;-60
2022/05/10 03:11:25;;;;;;;3.87;1.77;;;;;;;12.31;69.68;94907.34;5093547;28;20262;-62
2022/05/10 03:13:51;;;;;;;4.57;1.60;;;;;;;12.38;69.98;94905.91;5093444;28;20180;-60
2022/05/10 03:16:17;;;;;;;4.63;1.90;;;;;;;12.43;69.87;94906.28;5092909;28;20234;-61
2022/05/10 03:18:44;;;;;;;3.93;2.00;;;;;;;12.67;69.47;94919.41;5093290;28;20192;-64
2022/05/10 03:21:10;;;;;;;4.57;1.73;;;;;;;12.72;69.35;94917.28;5093309;28;20172;-61
2022/05/10 03:23:35;;;;;;;3.53;1.80;;;;;;;12.61;69.78;94910.56;5093136;28;20248;-60
2022/05/10 03:26:01;;;;;;;7.40;1.87;;;;;;;12.32;70.74;94899.56;5092889;28;20212;-62
2022/05/10 03:28:27;;;;;;;6.07;1.90;;;;;;;12.34;71.04;94907.09;5092869;28;20645;-61
2022/05/10 03:30:53;;;;;;;6.27;1.70;;;;;;;12.32;71.63;94907.22;5092487;28;20691;-60
2022/05/10 03:33:19;;;;;;;4.73;2.07;;;;;;;12.37;71.87;94909.38;5092972;28;20208;-62
2022/05/10 03:35:44;;;;;;;4.27;2.10;;;;;;;12.49;71.85;94915.94;5091605;28;20200;-60
2022/05/10 03:38:10;;;;;;;3.67;1.97;;;;;;;12.41;71.92;94901.31;5092817;28;20196;-60
2022/05/10 03:40:36;;;;;;;3.77;2.33;;;;;;;12.55;71.94;94928.16;5092830;28;20198;-61
2022/05/10 03:43:01;;;;;;;6.03;2.37;;;;;;;12.52;72.37;94913.13;5092725;28;20196;-60
2022/05/10 03:45:27;;;;;;;6.57;2.17;;;;;;;12.54;72.63;94919.69;5092465;28;20176;-61
2022/05/10 03:47:54;;;;;;;6.57;3.27;;;;;;;12.27;74.82;94900.91;5092034;28;20577;-61
2022/05/10 03:50:23;;;;;;;7.93;3.30;;;;;;;12.16;75.59;94911.25;5092211;28;20619;-64
2022/05/10 03:52:50;;;;;;;6.23;2.97;;;;;;;12.36;75.56;94917.97;5092361;28;20278;-60
2022/05/10 03:55:21;;;;;;;5.13;2.93;;;;;;;12.40;75.94;94924.41;5092534;28;20210;-60
2022/05/10 03:57:47;;;;;;;5.80;2.90;;;;;;;12.43;75.61;94931.78;5092523;28;20207;-63
2022/05/10 04:00:27;;;;;;;6.97;3.50;;;;;;;12.37;75.63;94928.03;5092305;28;20168;-61
2022/05/10 04:02:55;;;;;;;6.97;3.50;;;;;;;12.46;75.49;94944.28;5074332;28;20204;-62
2022/05/10 04:05:22;;;;;;;5.83;3.30;;;;;;;12.50;75.39;94943.06;5092144;28;20168;-60
2022/05/10 04:07:48;;;;;;;6.77;3.43;;;;;;;12.52;75.83;94938.63;5092345;28;20665;-61
2022/05/10 04:10:16;;;;;;;3.93;3.53;;;;;;;12.56;75.31;94947.63;5074123;28;20196;-61
2022/05/10 04:12:42;;;;;;;7.17;4.10;;;;;;;12.71;74.48;94959.03;5074444;28;20200;-62
2022/05/10 04:15:10;;;;;;;7.57;3.77;;;;;;;12.56;74.82;94955.28;5092049;28;20172;-60
2022/05/10 04:17:36;;;;;;;9.33;3.63;;;;;;;12.60;75.41;94948.97;5091907;28;20677;-60
2022/05/10 04:20:02;;;;;;;8.70;3.60;;;;;;;12.54;75.80;94949.50;5092246;28;20180;-63
2022/05/10 04:22:27;;;;;;;7.57;3.45;;;;;;;12.82;73.54;94976.75;5092127;28;20204;-60
2022/05/10 04:24:53;;;;;;;7.27;3.23;;;;;;;12.84;73.87;94972.31;5091999;28;20176;-59
2022/05/10 04:27:18;;;;;;;8.13;3.77;;;;;;;12.77;74.19;94965.31;5091902;28;20204;-61
2022/05/10 04:29:44;;;;;;;4.43;3.42;;;;;;;12.84;73.81;94976.59;5073938;28;20180;-61
2022/05/10 04:32:09;;;;;;;6.22;3.75;;;;;;;12.90;76.29;94960.75;5073644;28;20243;-61
2022/05/10 04:34:35;;;;;;;10.60;3.73;;;;;;;12.80;76.17;94952.31;5091833;28;20256;-61
2022/05/10 04:37:00;;;;;;;15.87;4.17;;;;;;;12.52;76.95;94948.84;5073481;28;20219;-60
2022/05/10 04:41:24;;;;;;;5.47;4.25;;;;;;;12.58;76.75;94951.63;5092023;28;20188;-63
2022/05/10 04:42:13;;;;;;;7.97;4.13;;;;;;;12.78;76.08;94959.28;5091659;28;20223;-60
2022/05/10 04:44:38;;;;;;;8.67;4.30;;;;;;;12.95;75.89;94966.28;5091691;28;20180;-60
2022/05/10 04:47:04;;;;;;;6.27;3.37;;;;;;;13.01;76.06;94970.81;5075780;28;20223;-62
2022/05/10 04:49:29;;;;;;;9.27;4.03;;;;;;;13.09;75.40;94976.09;5095719;28;20188;-61
2022/05/10 04:51:55;;;;;;;12.15;4.05;;;;;;;13.16;75.11;94980.50;5095520;28;20196;-61
2022/05/10 04:54:20;;;;;;;7.43;4.13;;;;;;;13.27;73.93;94992.31;5077633;28;20194;-61
2022/05/10 04:56:46;;;;;;;7.63;3.25;;;;;;;13.23;73.25;95009.63;5095512;28;20216;-63
2022/05/10 04:59:11;;;;;;;9.10;3.60;;;;;;;13.29;72.61;95016.75;5095930;28;20173;-65
2022/05/10 05:01:37;;;;;;;7.97;3.60;;;;;;;13.38;73.69;94998.06;5095570;28;20200;-62
2022/05/10 05:04:02;;;;;;;8.23;3.20;;;;;;;13.42;72.42;95016.44;5095439;28;20195;-61
2022/05/10 05:06:29;;;;;;;10.87;3.53;;;;;;;13.28;72.28;95022.00;5095654;28;20180;-62
2022/05/10 05:08:55;;;;;;;6.53;3.17;;;;;;;13.21;72.52;95006.41;5095978;28;20194;-60
2022/05/10 05:11:21;;;;;;;8.30;3.33;;;;;;;13.20;74.05;94993.78;5095675;28;20608;-61
2022/05/10 05:13:46;;;;;;;10.70;4.00;;;;;;;13.30;73.02;95010.72;5077371;28;20572;-61
2022/05/10 05:16:12;;;;;;;3.90;3.00;;;;;;;13.27;71.81;95026.28;5095392;28;20673;-61
2022/05/10 05:18:38;;;;;;;7.10;3.10;;;;;;;13.08;71.74;95016.13;5077143;28;20295;-62
2022/05/10 05:21:03;;;;;;;7.43;3.17;;;;;;;13.33;70.30;95043.59;5095076;28;20209;-63
2022/05/10 05:23:29;;;;;;;6.35;2.92;;;;;;;13.38;69.06;95061.09;5095348;28;20584;-61
2022/05/10 05:25:55;;;;;;;5.00;2.83;;;;;;;13.40;69.88;95047.25;5095294;28;20207;-61
2022/05/10 05:28:21;;;;;;;5.27;2.70;;;;;;;13.45;69.09;95057.06;5094851;28;20208;-60
2022/05/10 05:30:47;;;;;;;2.43;2.17;;;;;;;13.36;68.85;95056.13;5094942;28;20183;-61
2022/05/10 05:33:13;;;;;;;8.93;2.90;;;;;;;13.44;69.46;95048.56;5095409;28;20294;-64
2022/05/10 05:35:39;;;;;;;5.13;2.50;;;;;;;13.44;70.40;95029.88;5076875;28;20235;-63
2022/05/10 05:38:05;;;;;;;4.60;2.50;;;;;;;13.49;68.79;95043.06;5095057;28;20207;-62
2022/05/10 05:40:33;;;;;;;7.40;2.33;;;;;;;13.75;68.17;95066.25;5076699;28;20212;-61
2022/05/10 05:42:59;;;;;;;6.32;3.03;;;;;;;14.00;67.43;95060.50;5095082;28;20249;-61
2022/05/10 05:45:25;;;;;;;5.45;3.13;;;;;;;13.69;69.23;95031.84;5094971;28;20253;-60
2022/05/10 05:47:52;;;;;;;6.00;3.27;;;;;;;13.48;69.77;95021.81;5076309;28;20354;-62
2022/05/10 05:50:19;;;;;;;7.53;3.30;;;;;;;13.37;70.15;95018.63;5095093;28;20204;-65
2022/05/10 05:52:46;;;;;;;5.47;3.67;;;;;;;13.52;69.27;95029.19;5076578;28;20725;-61
2022/05/10 05:55:12;;;;;;;9.93;3.67;;;;;;;13.93;68.66;95036.47;5094512;28;20306;-61
2022/05/10 05:57:38;;;;;;;6.83;3.67;;;;;;;14.02;69.19;95028.75;5093968;28;20222;-60
2022/05/10 06:00:07;;;;;;;5.10;3.25;;;;;;;14.27;66.07;95088.66;5094384;28;20227;-64
2022/05/10 06:02:32;;;;;;;4.70;3.17;;;;;;;14.38;64.30;95103.88;5094510;28;20201;-62
2022/05/10 06:04:58;;;;;;;6.03;3.10;;;;;;;14.51;65.22;95093.28;5094520;28;20177;-60
2022/05/10 06:07:23;;;;;;;3.40;2.40;;;;;;;14.62;65.50;95083.69;5076157;28;20588;-60
2022/05/10 06:09:49;;;;;;;5.70;3.20;;;;;;;14.64;63.89;95096.34;5094415;28;20253;-60
2022/05/10 06:12:18;;;;;;;16.33;2.95;;;;;;;14.65;63.82;95098.75;5094220;28;20216;-61
2022/05/10 06:14:43;;;;;;;8.50;2.93;;;;;;;14.59;63.36;95109.53;5094494;28;20637;-62
2022/05/10 06:17:11;;;;;;;7.53;2.90;;;;;;;14.62;63.45;95104.16;5075694;28;20286;-63
2022/05/10 06:19:38;;;;;;;8.60;3.20;;;;;;;14.61;63.89;95097.41;5075806;28;20187;-60
2022/05/10 06:22:05;;;;;;;6.63;2.78;;;;;;;14.72;63.50;95107.47;5094119;28;20227;-61
2022/05/10 06:24:31;;;;;;;6.80;2.93;;;;;;;14.69;63.60;95100.06;5094314;28;20230;-60
2022/05/10 06:26:56;;;;;;;9.68;2.35;;;;;;;14.64;65.19;95057.94;5093936;28;20196;-60
2022/05/10 06:29:22;;;;;;;7.10;3.60;;;;;;;14.98;65.66;95061.47;5075975;28;20183;-61
2022/05/10 06:31:48;;;;;;;7.18;3.15;;;;;;;15.04;65.14;95068.56;5093672;28;20207;-62
2022/05/10 06:34:14;;;;;;;9.32;3.00;;;;;;;15.34;64.52;95086.13;5101336;22;20228;-60
2022/05/10 06:36:40;;;;;;;7.47;3.50;;;;;;;15.35;62.80;95115.09;5093591;28;20654;-60
2022/05/10 06:39:07;;;;;;;5.82;2.78;;;;;;;15.29;62.40;95123.38;5094519;28;20330;-60
2022/05/10 06:41:34;;;;;;;6.03;3.28;;;;;;;15.48;61.86;95124.06;5093856;28;20565;-62
2022/05/10 06:44:00;;;;;;;7.93;2.55;;;;;;;15.68;61.44;95122.13;5093502;28;20271;-63
2022/05/10 06:46:26;;;;;;;13.10;3.83;;;;;;;15.65;61.60;95117.31;5075894;28;20255;-61
2022/05/10 06:48:52;;;;;;;5.25;3.22;;;;;;;16.03;60.90;95134.88;5075760;28;20196;-60
2022/05/10 06:51:19;;;;;;;8.77;3.90;;;;;;;16.38;59.63;95165.53;5093616;28;20322;-61
2022/05/10 06:53:45;;;;;;;8.18;3.00;;;;;;;16.48;59.61;95150.03;5075284;28;20638;-61
2022/05/10 06:56:11;;;;;;;9.45;3.22;;;;;;;16.35;58.79;95160.72;5093319;28;20200;-63
2022/05/10 06:58:37;;;;;;;4.22;2.83;;;;;;;16.46;59.00;95154.53;5092948;28;20248;-65
2022/05/10 07:01:05;;;;;;;8.20;3.53;;;;;;;16.18;58.84;95151.31;5093383;28;20180;-60
2022/05/10 07:03:33;;;;;;;7.55;3.05;;;;;;;16.45;58.24;95158.84;5075050;28;20213;-61
2022/05/10 07:06:03;;;;;;;6.15;2.72;;;;;;;16.51;58.10;95165.16;5093209;28;20164;-62
2022/05/10 07:08:29;;;;;;;8.20;2.97;;;;;;;16.87;56.85;95189.69;5093431;28;20208;-60
2022/05/10 07:10:55;;;;;;;11.85;3.50;;;;;;;16.94;56.64;95184.75;5093160;28;20612;-60
2022/05/10 07:13:23;;;;;;;7.95;3.20;;;;;;;16.97;56.91;95169.81;5093365;28;20607;-60
2022/05/10 07:15:49;;;;;;;7.88;3.05;;;;;;;17.14;56.16;95174.06;5093155;28;20200;-65
2022/05/10 07:18:16;;;;;;;7.57;3.00;;;;;;;17.20;56.41;95168.28;5093231;28;20224;-60
2022/05/10 07:20:42;;;;;;;7.10;3.22;;;;;;;17.25;55.88;95178.91;5093234;28;20251;-61
2022/05/10 07:23:08;;;;;;;9.20;3.30;;;;;;;17.56;53.14;95215.13;5093042;28;20275;-63
2022/05/10 07:25:34;;;;;;;9.30;2.97;;;;;;;17.46;54.08;95194.69;5092817;28;20175;-63
2022/05/10 07:27:59;;;;;;;8.25;3.13;;;;;;;17.60;55.15;95173.53;5074680;28;20208;-63
2022/05/10 07:30:27;;;;;;;11.73;3.53;;;;;;;17.87;55.24;95164.69;5092818;28;20184;-63
2022/05/10 07:32:53;;;;;;;9.63;3.40;;;;;;;18.15;53.00;95211.47;5074423;28;20609;-60
2022/05/10 07:36:23;;;;;;;13.05;4.22;;;;;;;18.41;52.95;95205.16;5092562;28;20204;-64
2022/05/10 07:38:08;;;;;;;7.05;3.58;;;;;;;18.48;53.77;95177.03;5092710;28;20692;-60
2022/05/10 07:40:33;;;;;;;10.88;3.00;;;;;;;18.58;53.04;95192.28;5092524;28;20732;-60
2022/05/10 07:42:59;;;;;;;10.10;3.60;;;;;;;18.77;52.21;95208.16;5092790;28;20295;-63
2022/05/10 07:45:24;;;;;;;5.68;3.40;;;;;;;18.85;50.25;95236.47;5074480;28;20636;-62
2022/05/10 07:47:50;;;;;;;8.88;3.42;;;;;;;18.90;51.89;95197.34;5092575;28;20204;-63
2022/05/10 07:50:16;;;;;;;8.52;3.58;;;;;;;19.08;51.83;95182.44;5092489;28;20637;-60
2022/05/10 07:52:42;;;;;;;9.18;4.15;;;;;;;19.41;51.01;95201.16;5099423;22;20175;-60
2022/05/10 07:55:09;;;;;;;8.55;4.53;;;;;;;19.62;50.62;95209.06;5092344;28;20168;-60
2022/05/10 07:57:35;;;;;;;13.80;3.03;;;;;;;19.86;46.53;95257.94;5092274;28;20566;-63
2022/05/10 08:00:01;;;;;;;8.57;2.95;;;;;;;19.84;47.68;95211.66;5092242;28;20183;-61
2022/05/10 08:02:26;;;;;;;13.10;3.30;;;;;;;19.95;48.17;95202.72;5092317;28;20241;-63
2022/05/10 08:04:51;;;;;;;8.75;2.90;;;;;;;19.82;47.43;95184.41;5092191;28;20177;-60
2022/05/10 08:07:17;;;;;;;5.80;2.70;;;;;;;19.87;46.54;95197.63;5091990;28;20207;-61
2022/05/10 08:09:42;;;;;;;5.85;2.55;;;;;;;19.91;45.48;95201.44;5092077;28;20609;-63
2022/05/10 08:12:08;;;;;;;6.05;2.10;;;;;;;20.00;43.83;95229.59;5092115;28;20634;-64
2022/05/10 08:14:34;;;;;;;4.18;2.08;;;;;;;19.95;43.42;95216.44;5091991;28;20185;-63
2022/05/10 08:16:59;;;;;;;7.57;2.13;;;;;;;19.96;44.26;95184.47;5073916;28;20330;-61
2022/05/10 08:19:25;;;;;;;10.13;2.60;;;;;;;20.03;42.07;95213.78;5074102;28;20218;-63
2022/05/10 08:22:09;;;;;;;11.10;2.20;;;;;;;20.31;41.39;95206.31;5073114;28;20707;-61
2022/05/10 08:24:34;;;;;;;5.80;2.45;;;;;;;20.29;43.15;95166.13;5091999;28;20173;-61
2022/05/10 08:27:00;;;;;;;10.63;2.22;;;;;;;20.18;40.33;95177.66;5073739;28;20206;-60
2022/05/10 08:29:25;;;;;;;5.00;1.88;;;;;;;20.47;40.91;95138.19;5091850;28;20168;-60
2022/05/10 08:31:51;;;;;;;4.30;1.70;;;;;;;20.91;40.21;95154.44;5091720;28;20203;-61
2022/05/10 08:34:16;;;;;;;4.28;1.33;;;;;;;21.03;37.38;95160.78;5091883;28;20259;-62
2022/05/10 08:36:42;;;;;;;4.32;1.65;;;;;;;20.99;36.78;95125.91;5073639;28;20239;-64
2022/05/10 08:39:07;;;;;;;2.72;1.80;;;;;;;20.75;37.70;95100.38;5073933;28;20576;-62
2022/05/10 08:41:45;;;;;;;3.35;1.40;;;;;;;20.67;38.89;95069.47;5091675;28;20173;-61
2022/05/10 08:44:17;;;;;;;2.35;1.83;;;;;;;20.50;37.13;95092.09;5091952;28;20563;-62
2022/05/10 08:46:47;;;;;;;2.35;1.80;;;;;;;20.66;37.15;95089.34;5091703;28;20580;-63
2022/05/10 08:49:32;;;;;;;3.22;2.03;;;;;;;20.82;37.35;95088.34;5092090;28;20188;-62
2022/05/10 08:51:58;;;;;;;4.93;1.85;;;;;;;20.87;37.32;95093.75;5091329;28;20200;-61
2022/05/10 08:54:25;;;;;;;4.82;1.75;;;;;;;20.99;38.51;95066.44;5073754;28;20592;-63
2022/05/10 08:56:54;;;;;;;4.88;1.45;;;;;;;20.95;37.04;95091.06;5073412;28;20700;-61
2022/05/10 08:59:30;;;;;;;3.20;1.23;;;;;;;21.21;39.21;95050.00;5092142;28;20284;-61
2022/05/10 09:02:07;;;;;;;3.15;1.70;;;;;;;21.56;38.64;95054.28;5091668;28;20270;-61
2022/05/10 09:04:44;;;;;;;2.97;1.52;;;;;;;21.59;36.49;95082.38;5091663;28;20179;-64
2022/05/10 09:07:52;;;;;;;1.63;1.27;;;;;;;21.88;38.18;95052.16;5091770;28;20273;-61
2022/05/10 09:10:38;;;;;;;3.58;1.40;;;;;;;22.36;38.27;95061.63;5091621;28;20733;-62
2022/05/10 09:13:07;;;;;;;1.85;1.38;;;;;;;22.56;37.03;95060.72;5091685;28;20220;-64
2022/05/10 09:15:39;;;;;;;2.95;1.83;;;;;;;22.36;37.87;95052.03;5073255;28;20208;-65
2022/05/10 09:18:28;;;;;;;2.88;1.85;;;;;;;22.48;36.81;95057.50;5073375;28;20200;-61
2022/05/10 09:20:56;;;;;;;3.65;1.60;;;;;;;22.36;36.47;95064.22;5072853;28;20204;-62
2022/05/10 09:23:27;;;;;;;1.90;1.80;;;;;;;23.01;34.91;95081.84;5091596;28;20196;-61
2022/05/10 09:25:55;;;;;;;7.38;2.00;;;;;;;23.38;38.53;95019.06;5073319;28;20249;-61
2022/05/10 09:28:50;;;;;;;4.68;1.77;;;;;;;23.38;37.21;95045.03;5091769;28;20192;-62
2022/05/10 09:37:34;;;;;;;2.63;2.28;;;;;;;23.60;34.39;95063.81;5094697;28;20265;-61
2022/05/10 09:40:26;;;;;;;3.95;2.05;;;;;;;23.95;34.52;95057.41;5094786;28;20275;-61
2022/05/10 09:43:09;;;;;;;4.80;2.15;;;;;;;24.35;36.60;95026.97;5077731;28;20212;-64
2022/05/10 09:45:34;;;;;;;3.78;2.58;;;;;;;24.81;36.11;95036.22;5094798;28;20549;-62
2022/05/10 09:48:09;;;;;;;5.15;3.42;;;;;;;25.04;34.10;95058.31;5094925;28;20192;-65
2022/05/10 09:50:42;;;;;;;4.75;1.80;;;;;;;24.76;33.67;95064.66;5102211;22;20275;-63
2022/05/10 09:53:18;;;;;;;3.17;1.92;;;;;;;24.83;32.78;95055.00;5094667;28;20208;-63
2022/05/10 09:55:52;;;;;;;2.53;1.90;;;;;;;25.12;32.79;95068.47;5094850;28;20223;-62
2022/05/10 09:58:23;;;;;;;5.47;1.63;;;;;;;24.42;32.99;95045.94;5076145;28;20215;-61
2022/05/10 10:00:54;;;;;;;4.38;1.73;;;;;;;24.99;33.11;95051.94;5094957;28;20654;-62
2022/05/10 10:03:32;;;;;;;3.05;1.80;;;;;;;25.38;33.34;95045.69;5094169;28;20200;-62
2022/05/10 10:06:19;;;;;;;2.65;1.70;;;;;;;25.36;32.51;95058.13;5094419;28;20191;-63
2022/05/10 10:08:50;;;;;;;6.18;1.70;;;;;;;25.10;34.13;95029.66;5094145;28;20220;-62
2022/05/10 10:11:21;;;;;;;4.35;2.58;;;;;;;25.61;32.38;95045.16;5094504;28;20191;-61
2022/05/10 10:13:51;;;;;;;3.13;2.83;;;;;;;25.98;33.48;95027.81;5094105;28;20189;-62
2022/05/10 10:16:24;;;;;;;3.80;1.98;;;;;;;26.07;32.44;95037.75;5093955;28;20212;-61
2022/05/10 10:18:55;;;;;;;6.82;2.83;;;;;;;26.32;32.06;95037.72;5076194;28;20178;-62
2022/05/10 10:21:29;;;;;;;5.03;2.28;;;;;;;26.24;30.80;95051.81;5075709;28;20232;-65
2022/05/10 10:23:58;;;;;;;2.20;2.00;;;;;;;26.46;31.41;95024.28;5094023;28;20203;-68
2022/05/10 10:26:45;;;;;;;3.47;1.88;;;;;;;26.50;31.67;95016.84;5075969;28;20187;-63
2022/05/10 10:29:17;;;;;;;4.65;1.80;;;;;;;25.44;30.90;95029.25;5094153;28;20255;-62
2022/05/10 10:31:48;;;;;;;4.32;2.22;;;;;;;26.19;29.88;95033.44;5094204;28;20280;-63
2022/05/10 10:34:42;;;;;;;4.10;2.08;;;;;;;26.04;29.46;95039.97;5093895;28;20168;-61
2022/05/10 10:37:16;;;;;;;9.60;4.63;;;;;;;26.39;31.03;95004.53;5091576;28;20685;-63
2022/05/10 10:39:56;;;;;;;3.92;2.35;;;;;;;26.90;30.94;94999.69;5093789;28;20169;-62
2022/05/10 10:42:51;;;;;;;4.85;2.55;;;;;;;27.39;31.16;94988.16;5075331;28;20299;-63
2022/05/10 10:45:18;;;;;;;3.75;1.90;;;;;;;27.49;32.08;94980.56;5091165;28;20192;-62
2022/05/10 10:48:08;;;;;;;2.67;2.20;;;;;;;26.14;31.13;94983.72;5093594;28;20669;-61
2022/05/10 10:50:35;;;;;;;7.53;2.15;;;;;;;26.15;31.30;94981.94;5093197;28;20688;-66
2022/05/10 10:53:04;;;;;;;3.85;2.00;;;;;;;27.19;31.18;94980.59;5093332;28;20270;-66
2022/05/10 10:55:44;;;;;;;5.32;2.25;;;;;;;27.57;30.74;94982.84;5093516;28;20230;-63
2022/05/10 10:58:18;;;;;;;3.53;2.03;;;;;;;27.29;29.08;95003.56;5093458;28;20192;-63
2022/05/10 11:01:01;;;;;;;6.78;2.58;;;;;;;27.89;30.44;94971.03;5093402;28;20594;-66
2022/05/10 11:03:33;;;;;;;3.83;1.75;;;;;;;27.98;28.68;95008.88;5093320;28;20208;-68
2022/05/10 11:06:18;;;;;;;2.47;1.70;;;;;;;27.72;29.62;94977.94;5093611;28;20176;-63
2022/05/10 11:09:02;;;;;;;5.30;1.85;;;;;;;26.56;27.34;95001.09;5093292;28;20194;-62
2022/05/10 11:11:49;;;;;;;3.15;1.95;;;;;;;26.46;28.30;94976.56;5093464;28;20184;-62
2022/05/10 11:14:52;;;;;;;2.35;2.15;;;;;;;26.66;28.96;94958.03;5093017;28;20168;-62
2022/05/10 11:17:24;;;;;;;2.08;1.45;;;;;;;27.69;27.87;94981.03;5074554;28;20666;-62
2022/05/10 11:20:20;;;;;;;2.42;1.60;;;;;;;27.53;26.84;94986.94;5092886;28;20168;-64
2022/05/10 11:22:59;;;;;;;4.75;2.08;;;;;;;27.52;27.38;94971.47;5092734;28;20197;-63
2022/05/10 11:25:43;;;;;;;2.20;1.80;;;;;;;28.30;25.62;94984.97;5093072;28;20539;-65
2022/05/10 11:28:28;;;;;;;3.22;1.80;;;;;;;28.24;27.21;94958.72;5057847;28;20664;-63
2022/05/10 11:31:07;;;;;;;3.17;1.60;;;;;;;27.45;27.02;94960.34;5092978;28;20188;-63
2022/05/10 11:34:09;;;;;;;3.05;1.90;;;;;;;27.86;27.17;94944.53;5092383;28;20305;-63
2022/05/10 11:36:39;;;;;;;1.80;1.70;;;;;;;28.36;25.54;94963.94;5092305;28;20235;-67
2022/05/10 11:39:26;;;;;;;3.72;2.00;;;;;;;28.83;25.91;94951.47;5092501;28;20204;-62
2022/05/10 11:42:18;;;;;;;4.55;1.88;;;;;;;28.15;26.13;94944.41;5092398;28;20711;-64
2022/05/10 11:45:03;;;;;;;5.20;2.45;;;;;;;28.67;26.15;94944.38;5074243;28;20168;-64
2022/05/10 11:48:03;;;;;;;4.22;2.45;;;;;;;28.73;27.07;94919.88;5091761;28;20705;-65
2022/05/10 11:54:22;;;;;;;4.65;1.95;;;;;;;28.87;27.67;94903.66;5092151;28;20182;-65
2022/05/10 11:56:50;;;;;;;6.32;2.50;;;;;;;28.75;26.63;94918.63;5091664;28;20318;-65
2022/05/10 11:59:27;;;;;;;4.57;2.53;;;;;;;29.20;25.96;94921.25;5092394;28;20267;-67
2022/05/10 12:01:54;;;;;;;3.45;2.30;;;;;;;29.14;25.76;94910.88;5092705;28;20207;-66
2022/05/10 12:04:44;;;;;;;2.35;1.67;;;;;;;29.09;24.92;94929.94;5092207;28;20259;-64
2022/05/10 12:07:23;;;;;;;2.40;1.70;;;;;;;29.20;24.14;94931.72;5092498;28;20208;-65